sensor_id;sensor_type;location;lat;lon;timestamp;pressure;altitude;pressure_sealevel;temperature;humidity
22651;BME280;11492;42.646;23.400;2023-05-23T00:02:15;94913.25;;;12.34;84.46
22651;BME280;11492;42.646;23.400;2023-05-23T00:04:41;94912.66;;;12.32;84.49
22651;BME280;11492;42.646;23.400;2023-05-23T00:07:07;94915.84;;;12.34;84.00
22651;BME280;11492;42.646;23.400;2023-05-23T00:09:33;94914.25;;;12.33;84.03
22651;BME280;11492;42.646;23.400;2023-05-23T00:11:59;94908.84;;;12.28;83.26
22651;BME280;11492;42.646;23.400;2023-05-23T00:14:24;94904.84;;;12.25;83.43
22651;BME280;11492;42.646;23.400;2023-05-23T00:16:50;94914.38;;;12.25;83.15
22651;BME280;11492;42.646;23.400;2023-05-23T00:19:16;94904.00;;;12.19;84.08
22651;BME280;11492;42.646;23.400;2023-05-23T00:21:42;94918.97;;;12.23;83.74
22651;BME280;11492;42.646;23.400;2023-05-23T00:24:08;94902.97;;;12.13;82.72
22651;BME280;11492;42.646;23.400;2023-05-23T00:26:35;94908.34;;;12.12;82.90
22651;BME280;11492;42.646;23.400;2023-05-23T00:29:00;94909.72;;;12.08;82.94
22651;BME280;11492;42.646;23.400;2023-05-23T00:31:26;94904.88;;;11.98;82.92
22651;BME280;11492;42.646;23.400;2023-05-23T00:33:51;94887.88;;;11.90;82.36
22651;BME280;11492;42.646;23.400;2023-05-23T00:36:17;94904.63;;;11.94;82.19
22651;BME280;11492;42.646;23.400;2023-05-23T00:38:42;94903.59;;;11.88;82.55
22651;BME280;11492;42.646;23.400;2023-05-23T00:41:10;94900.22;;;11.88;82.68
22651;BME280;11492;42.646;23.400;2023-05-23T00:43:36;94889.59;;;11.76;82.72
22651;BME280;11492;42.646;23.400;2023-05-23T00:46:01;94891.97;;;11.71;82.99
22651;BME280;11492;42.646;23.400;2023-05-23T00:48:27;94901.88;;;11.68;83.89
22651;BME280;11492;42.646;23.400;2023-05-23T00:50:54;94893.06;;;11.63;83.93
22651;BME280;11492;42.646;23.400;2023-05-23T00:53:20;94897.88;;;11.66;84.57
22651;BME280;11492;42.646;23.400;2023-05-23T00:55:46;94885.84;;;11.52;83.91
22651;BME280;11492;42.646;23.400;2023-05-23T00:58:12;94895.56;;;11.29;85.79
22651;BME280;11492;42.646;23.400;2023-05-23T01:00:40;94901.53;;;11.30;85.98
22651;BME280;11492;42.646;23.400;2023-05-23T01:03:06;94909.00;;;11.39;86.05
22651;BME280;11492;42.646;23.400;2023-05-23T01:05:31;94905.22;;;11.42;85.49
22651;BME280;11492;42.646;23.400;2023-05-23T01:07:57;94898.09;;;11.44;85.94
22651;BME280;11492;42.646;23.400;2023-05-23T01:10:25;94905.34;;;11.54;84.73
22651;BME280;11492;42.646;23.400;2023-05-23T01:15:48;94910.06;;;11.45;84.22
22651;BME280;11492;42.646;23.400;2023-05-23T01:18:15;94906.69;;;11.30;85.30
22651;BME280;11492;42.646;23.400;2023-05-23T01:20:56;94906.31;;;11.33;85.60
22651;BME280;11492;42.646;23.400;2023-05-23T01:29:34;94910.88;;;11.31;85.63
22651;BME280;11492;42.646;23.400;2023-05-23T01:32:05;94908.09;;;11.32;85.10
22651;BME280;11492;42.646;23.400;2023-05-23T01:34:32;94913.53;;;11.37;84.68
22651;BME280;11492;42.646;23.400;2023-05-23T01:36:59;94900.91;;;11.48;84.26
22651;BME280;11492;42.646;23.400;2023-05-23T01:39:24;94904.38;;;11.55;83.63
22651;BME280;11492;42.646;23.400;2023-05-23T01:41:50;94890.81;;;11.53;82.64
22651;BME280;11492;42.646;23.400;2023-05-23T01:44:17;94900.75;;;11.50;83.17
22651;BME280;11492;42.646;23.400;2023-05-23T01:46:43;94901.25;;;11.39;83.54
22651;BME280;11492;42.646;23.400;2023-05-23T01:49:11;94900.34;;;11.53;83.59
22651;BME280;11492;42.646;23.400;2023-05-23T01:51:37;94895.75;;;11.48;83.04
22651;BME280;11492;42.646;23.400;2023-05-23T01:54:04;94899.78;;;11.57;82.95
22651;BME280;11492;42.646;23.400;2023-05-23T01:56:29;94903.81;;;11.60;82.49
22651;BME280;11492;42.646;23.400;2023-05-23T01:58:55;94897.41;;;11.56;82.06
22651;BME280;11492;42.646;23.400;2023-05-23T02:01:21;94893.47;;;11.60;82.71
22651;BME280;11492;42.646;23.400;2023-05-23T02:03:46;94887.88;;;11.56;82.69
22651;BME280;11492;42.646;23.400;2023-05-23T02:06:12;94897.66;;;11.61;82.35
22651;BME280;11492;42.646;23.400;2023-05-23T02:08:37;94900.19;;;11.54;82.15
22651;BME280;11492;42.646;23.400;2023-05-23T02:11:03;94904.13;;;11.50;82.29
22651;BME280;11492;42.646;23.400;2023-05-23T02:13:28;94893.91;;;11.43;83.00
22651;BME280;11492;42.646;23.400;2023-05-23T02:15:54;94901.75;;;11.49;82.61
22651;BME280;11492;42.646;23.400;2023-05-23T02:18:20;94900.84;;;11.42;82.89
22651;BME280;11492;42.646;23.400;2023-05-23T02:20:45;94896.44;;;11.36;83.46
22651;BME280;11492;42.646;23.400;2023-05-23T02:23:11;94895.97;;;11.33;83.21
22651;BME280;11492;42.646;23.400;2023-05-23T02:25:36;94896.78;;;11.33;84.22
22651;BME280;11492;42.646;23.400;2023-05-23T02:28:02;94903.31;;;11.29;84.16
22651;BME280;11492;42.646;23.400;2023-05-23T02:30:27;94884.72;;;11.20;83.23
22651;BME280;11492;42.646;23.400;2023-05-23T02:32:53;94895.50;;;11.23;83.63
22651;BME280;11492;42.646;23.400;2023-05-23T02:35:18;94896.22;;;11.17;83.82
22651;BME280;11492;42.646;23.400;2023-05-23T02:37:44;94895.38;;;11.10;84.10
22651;BME280;11492;42.646;23.400;2023-05-23T02:40:09;94884.00;;;11.05;84.33
22651;BME280;11492;42.646;23.400;2023-05-23T02:42:35;94882.59;;;11.02;84.61
22651;BME280;11492;42.646;23.400;2023-05-23T02:45:00;94889.34;;;11.03;84.32
22651;BME280;11492;42.646;23.400;2023-05-23T02:47:26;94886.88;;;10.95;85.03
22651;BME280;11492;42.646;23.400;2023-05-23T02:49:51;94898.44;;;10.99;84.62
22651;BME280;11492;42.646;23.400;2023-05-23T02:52:17;94900.03;;;11.00;84.98
22651;BME280;11492;42.646;23.400;2023-05-23T02:54:42;94877.88;;;10.92;85.13
22651;BME280;11492;42.646;23.400;2023-05-23T02:57:08;94878.13;;;10.96;85.30
22651;BME280;11492;42.646;23.400;2023-05-23T02:59:33;94881.47;;;10.91;85.56
22651;BME280;11492;42.646;23.400;2023-05-23T03:01:58;94884.94;;;10.97;85.17
22651;BME280;11492;42.646;23.400;2023-05-23T03:04:24;94885.09;;;10.96;85.18
22651;BME280;11492;42.646;23.400;2023-05-23T03:06:50;94871.13;;;10.91;85.50
22651;BME280;11492;42.646;23.400;2023-05-23T03:09:18;94880.91;;;10.95;85.85
22651;BME280;11492;42.646;23.400;2023-05-23T03:11:44;94881.34;;;10.98;85.32
22651;BME280;11492;42.646;23.400;2023-05-23T03:14:09;94881.97;;;11.00;85.20
22651;BME280;11492;42.646;23.400;2023-05-23T03:16:35;94879.50;;;10.93;85.78
22651;BME280;11492;42.646;23.400;2023-05-23T03:19:00;94887.56;;;11.04;86.50
22651;BME280;11492;42.646;23.400;2023-05-23T03:21:26;94881.91;;;11.15;88.04
22651;BME280;11492;42.646;23.400;2023-05-23T03:23:51;94882.69;;;11.15;88.86
22651;BME280;11492;42.646;23.400;2023-05-23T03:26:17;94892.28;;;11.21;88.87
22651;BME280;11492;42.646;23.400;2023-05-23T03:28:42;94885.72;;;11.19;89.52
22651;BME280;11492;42.646;23.400;2023-05-23T03:31:07;94884.00;;;11.25;89.51
22651;BME280;11492;42.646;23.400;2023-05-23T03:33:33;94894.03;;;11.35;89.54
22651;BME280;11492;42.646;23.400;2023-05-23T03:35:58;94895.81;;;11.34;90.15
22651;BME280;11492;42.646;23.400;2023-05-23T03:38:24;94903.25;;;11.44;89.71
22651;BME280;11492;42.646;23.400;2023-05-23T03:40:50;94914.81;;;11.47;90.09
22651;BME280;11492;42.646;23.400;2023-05-23T03:43:15;94902.91;;;11.46;89.75
22651;BME280;11492;42.646;23.400;2023-05-23T03:45:41;94912.97;;;11.62;90.73
22651;BME280;11492;42.646;23.400;2023-05-23T03:48:06;94911.72;;;11.58;89.52
22651;BME280;11492;42.646;23.400;2023-05-23T03:50:31;94908.09;;;11.53;88.96
22651;BME280;11492;42.646;23.400;2023-05-23T03:52:57;94911.19;;;11.63;89.92
22651;BME280;11492;42.646;23.400;2023-05-23T03:55:23;94904.59;;;11.60;88.09
22651;BME280;11492;42.646;23.400;2023-05-23T03:57:50;94908.19;;;11.59;87.68
22651;BME280;11492;42.646;23.400;2023-05-23T04:00:16;94910.88;;;11.51;88.10
22651;BME280;11492;42.646;23.400;2023-05-23T04:02:43;94915.81;;;11.46;88.27
22651;BME280;11492;42.646;23.400;2023-05-23T04:05:08;94914.41;;;11.44;88.87
22651;BME280;11492;42.646;23.400;2023-05-23T04:07:34;94921.59;;;11.48;88.67
22651;BME280;11492;42.646;23.400;2023-05-23T04:10:01;94917.84;;;11.51;89.56
22651;BME280;11492;42.646;23.400;2023-05-23T04:12:27;94910.53;;;11.54;89.41
22651;BME280;11492;42.646;23.400;2023-05-23T04:14:54;94913.22;;;11.67;88.26
22651;BME280;11492;42.646;23.400;2023-05-23T04:17:20;94914.44;;;11.71;88.62
22651;BME280;11492;42.646;23.400;2023-05-23T04:19:46;94912.69;;;11.78;87.85
22651;BME280;11492;42.646;23.400;2023-05-23T04:22:12;94901.31;;;11.72;88.43
22651;BME280;11492;42.646;23.400;2023-05-23T04:24:37;94915.72;;;11.81;87.79
22651;BME280;11492;42.646;23.400;2023-05-23T04:27:03;94903.09;;;11.72;87.65
22651;BME280;11492;42.646;23.400;2023-05-23T04:29:28;94926.19;;;11.73;87.29
22651;BME280;11492;42.646;23.400;2023-05-23T04:31:56;94911.97;;;11.63;87.71
22651;BME280;11492;42.646;23.400;2023-05-23T04:34:22;94925.16;;;11.68;87.19
22651;BME280;11492;42.646;23.400;2023-05-23T04:36:48;94916.97;;;11.65;88.15
22651;BME280;11492;42.646;23.400;2023-05-23T04:39:14;94915.03;;;11.73;88.04
22651;BME280;11492;42.646;23.400;2023-05-23T04:41:40;94918.03;;;11.70;88.24
22651;BME280;11492;42.646;23.400;2023-05-23T04:44:06;94925.25;;;11.81;88.28
22651;BME280;11492;42.646;23.400;2023-05-23T04:46:34;94922.72;;;11.87;88.03
22651;BME280;11492;42.646;23.400;2023-05-23T04:49:01;94919.16;;;11.95;87.40
22651;BME280;11492;42.646;23.400;2023-05-23T04:51:26;94921.16;;;11.93;86.66
22651;BME280;11492;42.646;23.400;2023-05-23T04:53:52;94926.13;;;11.94;86.14
22651;BME280;11492;42.646;23.400;2023-05-23T04:56:17;94920.56;;;11.91;86.49
22651;BME280;11492;42.646;23.400;2023-05-23T04:58:45;94931.34;;;12.00;86.56
22651;BME280;11492;42.646;23.400;2023-05-23T05:01:11;94934.59;;;12.09;86.58
22651;BME280;11492;42.646;23.400;2023-05-23T05:03:38;94934.88;;;12.20;86.34
22651;BME280;11492;42.646;23.400;2023-05-23T05:06:04;94936.69;;;12.26;86.13
22651;BME280;11492;42.646;23.400;2023-05-23T05:08:30;94937.91;;;12.30;85.70
22651;BME280;11492;42.646;23.400;2023-05-23T05:10:56;94942.88;;;12.25;85.17
22651;BME280;11492;42.646;23.400;2023-05-23T05:13:22;94938.88;;;12.22;84.64
22651;BME280;11492;42.646;23.400;2023-05-23T05:15:47;94947.69;;;12.28;85.40
22651;BME280;11492;42.646;23.400;2023-05-23T05:18:13;94944.09;;;12.29;85.37
22651;BME280;11492;42.646;23.400;2023-05-23T05:20:38;94944.91;;;12.36;84.35
22651;BME280;11492;42.646;23.400;2023-05-23T05:23:04;94941.97;;;12.39;83.36
22651;BME280;11492;42.646;23.400;2023-05-23T05:25:29;94950.56;;;12.45;83.77
22651;BME280;11492;42.646;23.400;2023-05-23T05:28:00;94953.00;;;12.53;84.18
22651;BME280;11492;42.646;23.400;2023-05-23T05:30:30;94954.66;;;12.67;84.17
22651;BME280;11492;42.646;23.400;2023-05-23T05:32:59;94939.34;;;12.72;82.70
22651;BME280;11492;42.646;23.400;2023-05-23T05:35:26;94936.13;;;12.70;81.57
22651;BME280;11492;42.646;23.400;2023-05-23T05:37:51;94947.78;;;12.80;81.91
22651;BME280;11492;42.646;23.400;2023-05-23T05:40:17;94940.81;;;12.87;81.15
22651;BME280;11492;42.646;23.400;2023-05-23T05:42:42;94946.22;;;12.98;81.75
22651;BME280;11492;42.646;23.400;2023-05-23T05:45:08;94943.84;;;12.91;81.00
22651;BME280;11492;42.646;23.400;2023-05-23T05:47:35;94946.00;;;12.94;82.03
22651;BME280;11492;42.646;23.400;2023-05-23T05:50:04;94934.09;;;12.99;81.84
22651;BME280;11492;42.646;23.400;2023-05-23T05:52:29;94945.72;;;13.22;81.91
22651;BME280;11492;42.646;23.400;2023-05-23T05:54:55;94942.94;;;13.30;80.96
22651;BME280;11492;42.646;23.400;2023-05-23T05:57:22;94946.94;;;13.45;81.10
22651;BME280;11492;42.646;23.400;2023-05-23T05:59:47;94951.97;;;13.59;80.41
22651;BME280;11492;42.646;23.400;2023-05-23T06:02:13;94943.00;;;13.68;80.44
22651;BME280;11492;42.646;23.400;2023-05-23T06:04:38;94949.78;;;13.63;79.62
22651;BME280;11492;42.646;23.400;2023-05-23T06:07:04;94944.97;;;13.60;80.25
22651;BME280;11492;42.646;23.400;2023-05-23T06:09:29;94950.19;;;13.66;80.02
22651;BME280;11492;42.646;23.400;2023-05-23T06:11:55;94951.16;;;13.65;79.89
22651;BME280;11492;42.646;23.400;2023-05-23T06:14:20;94945.81;;;13.73;80.23
22651;BME280;11492;42.646;23.400;2023-05-23T06:16:45;94949.59;;;13.90;80.04
22651;BME280;11492;42.646;23.400;2023-05-23T06:19:11;94951.81;;;14.05;79.90
22651;BME280;11492;42.646;23.400;2023-05-23T06:21:36;94945.00;;;14.17;80.19
22651;BME280;11492;42.646;23.400;2023-05-23T06:24:02;94948.97;;;14.32;79.59
22651;BME280;11492;42.646;23.400;2023-05-23T06:26:27;94941.75;;;14.47;80.35
22651;BME280;11492;42.646;23.400;2023-05-23T06:28:52;94943.56;;;14.59;78.60
22651;BME280;11492;42.646;23.400;2023-05-23T06:31:18;94947.28;;;14.70;78.26
22651;BME280;11492;42.646;23.400;2023-05-23T06:33:43;94943.66;;;14.83;77.49
22651;BME280;11492;42.646;23.400;2023-05-23T06:36:09;94940.81;;;14.97;77.76
22651;BME280;11492;42.646;23.400;2023-05-23T06:38:34;94940.34;;;15.13;76.86
22651;BME280;11492;42.646;23.400;2023-05-23T06:41:00;94936.25;;;15.30;76.38
22651;BME280;11492;42.646;23.400;2023-05-23T06:43:26;94935.81;;;15.39;75.69
22651;BME280;11492;42.646;23.400;2023-05-23T06:45:52;94943.91;;;15.55;75.19
22651;BME280;11492;42.646;23.400;2023-05-23T06:48:18;94942.06;;;15.62;75.35
22651;BME280;11492;42.646;23.400;2023-05-23T06:50:43;94939.22;;;15.70;74.90
22651;BME280;11492;42.646;23.400;2023-05-23T06:53:09;94933.53;;;15.79;74.52
22651;BME280;11492;42.646;23.400;2023-05-23T06:55:34;94934.22;;;15.93;73.77
22651;BME280;11492;42.646;23.400;2023-05-23T06:58:00;94926.22;;;15.94;73.54
22651;BME280;11492;42.646;23.400;2023-05-23T07:00:31;94930.34;;;16.01;73.36
22651;BME280;11492;42.646;23.400;2023-05-23T07:02:56;94928.94;;;16.05;73.60
22651;BME280;11492;42.646;23.400;2023-05-23T07:05:26;94930.94;;;16.10;73.26
22651;BME280;11492;42.646;23.400;2023-05-23T07:07:52;94921.47;;;16.15;73.77
22651;BME280;11492;42.646;23.400;2023-05-23T07:10:17;94923.50;;;16.31;73.54
22651;BME280;11492;42.646;23.400;2023-05-23T07:12:44;94921.91;;;16.30;73.24
22651;BME280;11492;42.646;23.400;2023-05-23T07:15:10;94919.75;;;16.45;73.40
22651;BME280;11492;42.646;23.400;2023-05-23T07:17:36;94915.13;;;16.47;73.60
22651;BME280;11492;42.646;23.400;2023-05-23T07:20:01;94913.53;;;16.63;73.70
22651;BME280;11492;42.646;23.400;2023-05-23T07:22:29;94910.28;;;16.68;72.80
22651;BME280;11492;42.646;23.400;2023-05-23T07:24:54;94919.19;;;16.78;72.90
22651;BME280;11492;42.646;23.400;2023-05-23T07:27:20;94909.47;;;16.85;71.63
22651;BME280;11492;42.646;23.400;2023-05-23T07:29:46;94903.22;;;16.86;71.95
22651;BME280;11492;42.646;23.400;2023-05-23T07:32:11;94905.69;;;16.98;71.51
22651;BME280;11492;42.646;23.400;2023-05-23T07:34:37;94898.22;;;17.02;71.84
22651;BME280;11492;42.646;23.400;2023-05-23T07:37:02;94899.44;;;17.17;70.80
22651;BME280;11492;42.646;23.400;2023-05-23T07:39:27;94886.84;;;17.14;69.67
22651;BME280;11492;42.646;23.400;2023-05-23T07:41:53;94899.91;;;17.14;69.88
22651;BME280;11492;42.646;23.400;2023-05-23T07:44:18;94892.91;;;17.26;69.66
22651;BME280;11492;42.646;23.400;2023-05-23T07:46:44;94894.88;;;17.30;70.17
22651;BME280;11492;42.646;23.400;2023-05-23T07:49:09;94891.75;;;17.51;69.81
22651;BME280;11492;42.646;23.400;2023-05-23T07:51:35;94880.09;;;17.65;69.21
22651;BME280;11492;42.646;23.400;2023-05-23T07:54:01;94894.09;;;17.93;69.91
22651;BME280;11492;42.646;23.400;2023-05-23T07:56:26;94892.44;;;18.21;70.62
22651;BME280;11492;42.646;23.400;2023-05-23T07:58:52;94888.75;;;18.78;67.98
22651;BME280;11492;42.646;23.400;2023-05-23T08:01:17;94886.22;;;19.33;65.99
22651;BME280;11492;42.646;23.400;2023-05-23T08:03:43;94880.63;;;19.84;65.09
22651;BME280;11492;42.646;23.400;2023-05-23T08:06:08;94884.59;;;20.51;62.95
22651;BME280;11492;42.646;23.400;2023-05-23T08:08:35;94878.72;;;20.82;60.61
22651;BME280;11492;42.646;23.400;2023-05-23T08:11:00;94880.88;;;21.27;59.06
22651;BME280;11492;42.646;23.400;2023-05-23T08:13:26;94877.81;;;21.61;58.13
22651;BME280;11492;42.646;23.400;2023-05-23T08:15:52;94878.31;;;22.10;56.40
22651;BME280;11492;42.646;23.400;2023-05-23T08:18:18;94881.75;;;22.51;56.23
22651;BME280;11492;42.646;23.400;2023-05-23T08:20:43;94875.59;;;22.76;54.68
22651;BME280;11492;42.646;23.400;2023-05-23T08:23:09;94882.59;;;23.02;54.44
22651;BME280;11492;42.646;23.400;2023-05-23T08:25:36;94880.25;;;23.05;53.22
22651;BME280;11492;42.646;23.400;2023-05-23T08:28:01;94871.69;;;23.39;53.45
22651;BME280;11492;42.646;23.400;2023-05-23T08:30:27;94868.09;;;23.79;51.91
22651;BME280;11492;42.646;23.400;2023-05-23T08:32:56;94880.50;;;23.99;50.63
22651;BME280;11492;42.646;23.400;2023-05-23T08:35:22;94859.16;;;24.34;50.93
22651;BME280;11492;42.646;23.400;2023-05-23T08:37:47;94877.88;;;24.48;49.51
22651;BME280;11492;42.646;23.400;2023-05-23T08:40:23;94870.78;;;24.53;49.21
22651;BME280;11492;42.646;23.400;2023-05-23T08:42:49;94867.56;;;24.71;49.40
22651;BME280;11492;42.646;23.400;2023-05-23T08:45:15;94864.63;;;24.87;49.39
22651;BME280;11492;42.646;23.400;2023-05-23T08:47:42;94875.44;;;25.00;48.63
22651;BME280;11492;42.646;23.400;2023-05-23T08:50:18;94859.31;;;25.02;49.25
22651;BME280;11492;42.646;23.400;2023-05-23T08:52:52;94865.91;;;25.04;49.40
22651;BME280;11492;42.646;23.400;2023-05-23T08:55:22;94867.72;;;25.13;48.89
22651;BME280;11492;42.646;23.400;2023-05-23T08:57:48;94869.50;;;25.27;48.95
22651;BME280;11492;42.646;23.400;2023-05-23T09:00:14;94863.13;;;25.43;47.93
22651;BME280;11492;42.646;23.400;2023-05-23T09:02:44;94868.53;;;25.66;47.02
22651;BME280;11492;42.646;23.400;2023-05-23T09:05:10;94858.19;;;25.75;47.37
22651;BME280;11492;42.646;23.400;2023-05-23T09:07:36;94864.50;;;25.78;46.69
22651;BME280;11492;42.646;23.400;2023-05-23T09:10:04;94851.09;;;25.65;46.95
22651;BME280;11492;42.646;23.400;2023-05-23T09:12:31;94857.28;;;25.89;45.36
22651;BME280;11492;42.646;23.400;2023-05-23T09:14:57;94859.22;;;25.78;45.16
22651;BME280;11492;42.646;23.400;2023-05-23T09:17:23;94865.56;;;25.82;45.33
22651;BME280;11492;42.646;23.400;2023-05-23T09:19:48;94855.41;;;25.94;44.74
22651;BME280;11492;42.646;23.400;2023-05-23T09:22:14;94848.41;;;26.08;44.60
22651;BME280;11492;42.646;23.400;2023-05-23T09:24:39;94848.66;;;26.11;44.37
22651;BME280;11492;42.646;23.400;2023-05-23T09:27:06;94850.00;;;26.42;39.34
22651;BME280;11492;42.646;23.400;2023-05-23T09:29:32;94841.81;;;26.71;41.23
22651;BME280;11492;42.646;23.400;2023-05-23T09:32:14;94847.28;;;27.03;40.92
22651;BME280;11492;42.646;23.400;2023-05-23T09:37:15;94839.63;;;27.42;38.04
22651;BME280;11492;42.646;23.400;2023-05-23T09:39:46;94835.84;;;27.66;37.27
22651;BME280;11492;42.646;23.400;2023-05-23T09:42:20;94842.56;;;28.00;37.12
22651;BME280;11492;42.646;23.400;2023-05-23T09:44:49;94838.59;;;27.98;35.34
22651;BME280;11492;42.646;23.400;2023-05-23T09:47:16;94833.69;;;28.04;36.36
22651;BME280;11492;42.646;23.400;2023-05-23T09:49:45;94831.03;;;28.23;35.44
22651;BME280;11492;42.646;23.400;2023-05-23T09:52:11;94822.19;;;28.27;33.96
22651;BME280;11492;42.646;23.400;2023-05-23T09:54:38;94830.34;;;28.30;33.82
22651;BME280;11492;42.646;23.400;2023-05-23T09:57:08;94829.94;;;28.42;32.91
22651;BME280;11492;42.646;23.400;2023-05-23T09:59:39;94824.88;;;28.09;31.97
22651;BME280;11492;42.646;23.400;2023-05-23T10:02:09;94821.38;;;27.95;33.11
22651;BME280;11492;42.646;23.400;2023-05-23T10:04:36;94827.59;;;28.04;33.92
22651;BME280;11492;42.646;23.400;2023-05-23T10:07:13;94820.06;;;28.11;33.74
22651;BME280;11492;42.646;23.400;2023-05-23T10:09:41;94821.06;;;28.15;33.73
22651;BME280;11492;42.646;23.400;2023-05-23T10:14:42;94817.34;;;28.47;31.60
22651;BME280;11492;42.646;23.400;2023-05-23T10:17:17;94826.34;;;28.64;32.09
22651;BME280;11492;42.646;23.400;2023-05-23T10:19:59;94821.25;;;28.68;32.67
22651;BME280;11492;42.646;23.400;2023-05-23T10:22:26;94819.19;;;28.91;31.82
22651;BME280;11492;42.646;23.400;2023-05-23T10:24:52;94816.16;;;28.98;31.65
22651;BME280;11492;42.646;23.400;2023-05-23T10:27:18;94816.47;;;29.09;30.83
22651;BME280;11492;42.646;23.400;2023-05-23T10:29:44;94806.78;;;29.27;29.55
22651;BME280;11492;42.646;23.400;2023-05-23T10:32:11;94803.41;;;29.61;29.79
22651;BME280;11492;42.646;23.400;2023-05-23T10:37:39;94796.31;;;29.57;29.48
22651;BME280;11492;42.646;23.400;2023-05-23T10:40:42;94794.91;;;29.59;29.72
22651;BME280;11492;42.646;23.400;2023-05-23T10:43:28;94784.47;;;29.62;29.27
22651;BME280;11492;42.646;23.400;2023-05-23T10:45:55;94794.44;;;29.92;28.58
22651;BME280;11492;42.646;23.400;2023-05-23T10:48:22;94785.22;;;29.98;28.45
22651;BME280;11492;42.646;23.400;2023-05-23T10:51:08;94783.69;;;30.05;27.94
22651;BME280;11492;42.646;23.400;2023-05-23T10:53:35;94797.84;;;30.27;27.43
22651;BME280;11492;42.646;23.400;2023-05-23T10:56:04;94792.19;;;30.50;27.32
22651;BME280;11492;42.646;23.400;2023-05-23T10:58:30;94788.38;;;30.64;27.02
22651;BME280;11492;42.646;23.400;2023-05-23T11:01:00;94784.34;;;30.75;26.42
22651;BME280;11492;42.646;23.400;2023-05-23T11:03:50;94786.25;;;30.83;26.28
22651;BME280;11492;42.646;23.400;2023-05-23T11:06:37;94788.13;;;30.74;26.20
22651;BME280;11492;42.646;23.400;2023-05-23T11:09:12;94784.94;;;30.72;26.45
22651;BME280;11492;42.646;23.400;2023-05-23T11:16:58;94769.31;;;30.87;27.38
22651;BME280;11492;42.646;23.400;2023-05-23T11:19:25;94771.19;;;31.25;27.50
22651;BME280;11492;42.646;23.400;2023-05-23T11:22:02;94765.75;;;31.55;25.90
22651;BME280;11492;42.646;23.400;2023-05-23T11:24:49;94772.41;;;31.74;24.47
22651;BME280;11492;42.646;23.400;2023-05-23T11:27:16;94762.44;;;31.50;24.72
22651;BME280;11492;42.646;23.400;2023-05-23T11:29:54;94764.38;;;31.66;25.31
22651;BME280;11492;42.646;23.400;2023-05-23T11:32:20;94764.06;;;31.67;25.37
22651;BME280;11492;42.646;23.400;2023-05-23T11:34:46;94762.28;;;31.55;25.46
22651;BME280;11492;42.646;23.400;2023-05-23T11:37:11;94757.56;;;31.52;25.87
22651;BME280;11492;42.646;23.400;2023-05-23T11:39:37;94763.50;;;31.40;25.53
22651;BME280;11492;42.646;23.400;2023-05-23T11:42:03;94751.91;;;31.53;24.96
22651;BME280;11492;42.646;23.400;2023-05-23T11:44:28;94751.31;;;31.64;25.83
22651;BME280;11492;42.646;23.400;2023-05-23T11:47:01;94742.19;;;31.99;25.54
22651;BME280;11492;42.646;23.400;2023-05-23T11:49:31;94746.75;;;31.90;26.02
22651;BME280;11492;42.646;23.400;2023-05-23T11:51:57;94739.53;;;31.99;26.23
22651;BME280;11492;42.646;23.400;2023-05-23T11:54:25;94748.16;;;31.96;25.87
22651;BME280;11492;42.646;23.400;2023-05-23T11:56:51;94743.31;;;32.14;25.22
22651;BME280;11492;42.646;23.400;2023-05-23T11:59:17;94739.38;;;32.20;24.21
22651;BME280;11492;42.646;23.400;2023-05-23T12:01:42;94751.94;;;32.28;25.52
22651;BME280;11492;42.646;23.400;2023-05-23T12:04:11;94738.03;;;32.43;24.00
22651;BME280;11492;42.646;23.400;2023-05-23T12:06:38;94729.34;;;32.54;24.06
22651;BME280;11492;42.646;23.400;2023-05-23T12:09:05;94730.31;;;32.50;24.04
22651;BME280;11492;42.646;23.400;2023-05-23T12:11:31;94739.28;;;32.54;24.41
22651;BME280;11492;42.646;23.400;2023-05-23T12:13:57;94729.63;;;32.69;24.15
22651;BME280;11492;42.646;23.400;2023-05-23T12:16:24;94734.00;;;32.82;23.46
22651;BME280;11492;42.646;23.400;2023-05-23T12:18:51;94721.72;;;32.81;24.01
22651;BME280;11492;42.646;23.400;2023-05-23T12:21:17;94718.91;;;33.06;23.98
22651;BME280;11492;42.646;23.400;2023-05-23T12:23:43;94718.16;;;33.34;24.07
22651;BME280;11492;42.646;23.400;2023-05-23T12:26:09;94710.53;;;33.16;23.28
22651;BME280;11492;42.646;23.400;2023-05-23T12:28:42;94712.16;;;33.00;23.98
22651;BME280;11492;42.646;23.400;2023-05-23T12:31:10;94704.81;;;32.89;23.67
22651;BME280;11492;42.646;23.400;2023-05-23T12:33:40;94703.88;;;33.22;23.99
22651;BME280;11492;42.646;23.400;2023-05-23T12:36:08;94696.16;;;33.20;23.88
22651;BME280;11492;42.646;23.400;2023-05-23T12:38:33;94694.66;;;33.31;22.85
22651;BME280;11492;42.646;23.400;2023-05-23T12:41:13;94694.84;;;33.26;23.31
22651;BME280;11492;42.646;23.400;2023-05-23T12:43:40;94697.34;;;33.03;23.16
22651;BME280;11492;42.646;23.400;2023-05-23T12:46:06;94688.53;;;32.12;23.44
22651;BME280;11492;42.646;23.400;2023-05-23T12:48:32;94689.53;;;31.58;23.85
22651;BME280;11492;42.646;23.400;2023-05-23T12:50:58;94685.19;;;30.90;24.95
22651;BME280;11492;42.646;23.400;2023-05-23T12:53:25;94687.50;;;30.45;25.99
22651;BME280;11492;42.646;23.400;2023-05-23T12:55:52;94677.34;;;29.95;25.82
22651;BME280;11492;42.646;23.400;2023-05-23T12:58:17;94683.00;;;29.37;26.07
22651;BME280;11492;42.646;23.400;2023-05-23T13:00:42;94676.53;;;29.30;26.86
22651;BME280;11492;42.646;23.400;2023-05-23T13:03:08;94669.41;;;29.04;26.82
22651;BME280;11492;42.646;23.400;2023-05-23T13:05:33;94681.47;;;28.62;25.36
22651;BME280;11492;42.646;23.400;2023-05-23T13:07:59;94682.00;;;28.19;26.12
22651;BME280;11492;42.646;23.400;2023-05-23T13:10:24;94682.97;;;27.97;26.41
22651;BME280;11492;42.646;23.400;2023-05-23T13:12:50;94677.94;;;27.64;26.48